Time;durP1;ratioP1;P1;durP2;ratioP2;P2;SDS_P1;SDS_P2;PMS_P1;PMS_P2;Temp;Humidity;BMP_temperature;BMP_pressure;BME280_temperature;BME280_humidity;BME280_pressure;Samples;Min_cycle;Max_cycle;Signal;HPM_P1;HPM_P2
2022/05/16 00:01:44;;;;;;;10.38;5.10;;;;;;;;;;5094469;28;20119;-69
2022/05/16 00:04:10;;;;;;;12.15;4.72;;;;;;;;;;5094102;28;20610;-69
2022/05/16 00:06:36;;;;;;;11.88;4.72;;;;;;;;;;5093984;28;20052;-69
2022/05/16 00:09:04;;;;;;;11.05;5.22;;;;;;;;;;5094329;28;20035;-69
2022/05/16 00:11:31;;;;;;;12.68;4.95;;;;;;;;;;5097875;28;20123;-69
2022/05/16 00:13:57;;;;;;;11.82;5.43;;;;;;;;;;5098688;28;20364;-69
2022/05/16 00:16:23;;;;;;;11.95;5.07;;;;;;;;;;5098515;28;20527;-69
2022/05/16 00:18:51;;;;;;;8.98;4.47;;;;;;;;;;5098036;28;20471;-69
2022/05/16 00:21:17;;;;;;;13.43;5.13;;;;;;;;;;5098081;28;20032;-69
2022/05/16 00:23:43;;;;;;;13.15;5.00;;;;;;;;;;5098594;28;20048;-69
2022/05/16 00:26:09;;;;;;;13.02;5.50;;;;;;;;;;5098276;28;20055;-69
2022/05/16 00:28:36;;;;;;;13.13;5.70;;;;;;;;;;5098566;28;20039;-69
2022/05/16 00:31:02;;;;;;;12.70;5.68;;;;;;;;;;5098189;28;20050;-69
2022/05/16 00:33:28;;;;;;;12.10;5.10;;;;;;;;;;5098628;28;20475;-69
2022/05/16 00:35:54;;;;;;;11.07;5.50;;;;;;;;;;5097857;28;20050;-69
2022/05/16 00:38:20;;;;;;;13.30;5.25;;;;;;;;;;5098650;28;20051;-69
2022/05/16 00:40:46;;;;;;;13.60;4.78;;;;;;;;;;5098010;28;20111;-69
2022/05/16 00:43:13;;;;;;;13.77;5.25;;;;;;;;;;5098268;28;20117;-69
2022/05/16 00:45:40;;;;;;;15.85;5.20;;;;;;;;;;5097869;28;20048;-69
2022/05/16 00:48:06;;;;;;;15.50;5.53;;;;;;;;;;5097967;28;20040;-69
2022/05/16 00:50:39;;;;;;;10.98;5.25;;;;;;;;;;5097853;28;20044;-69
2022/05/16 00:53:05;;;;;;;13.38;5.28;;;;;;;;;;5096907;28;20410;-69
2022/05/16 00:55:33;;;;;;;10.15;4.85;;;;;;;;;;5097827;28;20078;-69
2022/05/16 00:58:08;;;;;;;12.75;5.72;;;;;;;;;;5097446;28;20410;-69
2022/05/16 01:00:36;;;;;;;14.57;5.32;;;;;;;;;;5097732;28;20097;-69
2022/05/16 01:06:01;;;;;;;10.60;5.18;;;;;;;;;;5096995;28;20410;-69
2022/05/16 01:08:30;;;;;;;15.98;5.38;;;;;;;;;;5097240;28;20486;-69
2022/05/16 01:10:57;;;;;;;15.77;5.63;;;;;;;;;;5097719;28;20036;-69
2022/05/16 01:13:27;;;;;;;10.20;5.25;;;;;;;;;;5097515;28;20052;-69
2022/05/16 01:15:54;;;;;;;12.60;5.30;;;;;;;;;;5097658;28;20074;-69
2022/05/16 01:18:21;;;;;;;14.48;5.35;;;;;;;;;;5097227;28;20060;-69
2022/05/16 01:21:01;;;;;;;13.93;5.53;;;;;;;;;;5096686;28;20513;-69
2022/05/16 01:23:28;;;;;;;11.48;5.28;;;;;;;;;;5096224;28;20032;-69
2022/05/16 01:25:54;;;;;;;16.42;6.03;;;;;;;;;;5097111;28;20044;-69
2022/05/16 01:28:22;;;;;;;18.52;5.85;;;;;;;;;;5097139;28;20064;-69
2022/05/16 01:30:49;;;;;;;16.23;5.38;;;;;;;;;;5097066;28;20040;-69
2022/05/16 01:33:20;;;;;;;13.10;5.47;;;;;;;;;;5097764;28;20081;-69
2022/05/16 01:35:46;;;;;;;11.48;5.35;;;;;;;;;;5097016;28;20122;-69
2022/05/16 01:38:18;;;;;;;11.20;6.18;;;;;;;;;;5096949;28;20121;-69
2022/05/16 01:40:45;;;;;;;12.98;5.88;;;;;;;;;;5097087;28;20040;-69
2022/05/16 01:43:11;;;;;;;8.55;4.85;;;;;;;;;;5097481;28;20043;-69
2022/05/16 01:45:38;;;;;;;13.02;6.03;;;;;;;;;;5096708;28;20047;-69
2022/05/16 01:48:05;;;;;;;15.35;5.50;;;;;;;;;;5097171;28;20042;-69
2022/05/16 01:50:31;;;;;;;13.10;5.70;;;;;;;;;;5096420;28;20050;-69
2022/05/16 01:52:57;;;;;;;14.82;5.70;;;;;;;;;;5096920;28;20491;-69
2022/05/16 01:55:23;;;;;;;11.45;5.63;;;;;;;;;;5096625;28;20048;-69
2022/05/16 01:57:49;;;;;;;11.45;6.03;;;;;;;;;;5096302;28;20047;-69
2022/05/16 02:00:16;;;;;;;9.70;5.05;;;;;;;;;;5096555;28;20048;-69
2022/05/16 02:02:42;;;;;;;13.68;5.90;;;;;;;;;;5096093;28;20048;-69
2022/05/16 02:05:13;;;;;;;9.40;5.07;;;;;;;;;;5096062;28;20379;-69
2022/05/16 02:07:39;;;;;;;11.18;5.88;;;;;;;;;;5096393;28;20127;-69
2022/05/16 02:10:07;;;;;;;13.20;5.78;;;;;;;;;;5096871;28;20043;-69
2022/05/16 02:12:33;;;;;;;11.02;4.95;;;;;;;;;;5095876;28;20051;-69
2022/05/16 02:15:00;;;;;;;12.60;6.00;;;;;;;;;;5096250;28;20543;-69
2022/05/16 02:17:26;;;;;;;11.82;5.82;;;;;;;;;;5095973;28;20036;-69
2022/05/16 02:19:52;;;;;;;11.07;5.65;;;;;;;;;;5095430;28;20089;-69
2022/05/16 02:25:04;;;;;;;11.07;5.50;;;;;;;;;;5095126;28;20131;-69
2022/05/16 02:27:30;;;;;;;17.23;5.25;;;;;;;;;;5095971;28;20043;-69
2022/05/16 02:29:56;;;;;;;11.82;5.28;;;;;;;;;;5095706;28;20040;-69
2022/05/16 02:32:22;;;;;;;10.90;5.70;;;;;;;;;;5095088;28;20483;-69
2022/05/16 02:34:48;;;;;;;9.55;5.75;;;;;;;;;;5095668;28;20040;-69
2022/05/16 02:37:15;;;;;;;11.00;5.38;;;;;;;;;;5095381;28;20498;-69
2022/05/16 02:39:45;;;;;;;10.57;5.43;;;;;;;;;;5095196;28;20036;-69
2022/05/16 02:42:12;;;;;;;12.63;5.47;;;;;;;;;;5095122;28;20395;-69
2022/05/16 02:44:38;;;;;;;10.40;5.95;;;;;;;;;;5095619;28;20070;-69
2022/05/16 02:47:05;;;;;;;11.65;6.50;;;;;;;;;;5095542;28;20040;-69
2022/05/16 02:49:31;;;;;;;12.32;5.20;;;;;;;;;;5095080;28;20043;-69
2022/05/16 02:51:58;;;;;;;11.65;5.43;;;;;;;;;;5095254;28;20040;-69
2022/05/16 02:54:24;;;;;;;11.50;6.03;;;;;;;;;;5095556;28;20050;-69
2022/05/16 02:56:50;;;;;;;12.40;5.53;;;;;;;;;;5095147;28;20047;-69
2022/05/16 02:59:17;;;;;;;11.93;6.10;;;;;;;;;;5095158;28;20040;-69
2022/05/16 03:01:43;;;;;;;14.40;5.50;;;;;;;;;;5095069;28;20066;-69
2022/05/16 03:04:09;;;;;;;10.93;5.68;;;;;;;;;;5095181;28;20040;-69
2022/05/16 03:06:35;;;;;;;10.80;5.03;;;;;;;;;;5094977;28;20117;-69
2022/05/16 03:09:01;;;;;;;12.65;6.07;;;;;;;;;;5095571;28;20040;-69
2022/05/16 03:11:27;;;;;;;14.80;6.10;;;;;;;;;;5094956;28;20071;-69
2022/05/16 03:13:54;;;;;;;10.23;5.30;;;;;;;;;;5094823;28;20052;-69
2022/05/16 03:16:20;;;;;;;12.13;6.10;;;;;;;;;;5094891;28;20040;-69
2022/05/16 03:18:46;;;;;;;14.55;5.93;;;;;;;;;;5094960;28;20047;-69
2022/05/16 03:21:12;;;;;;;10.30;5.88;;;;;;;;;;5095109;28;20067;-69
2022/05/16 03:23:38;;;;;;;9.40;5.75;;;;;;;;;;5095173;28;20078;-69
2022/05/16 03:26:05;;;;;;;18.38;5.63;;;;;;;;;;5094968;28;20044;-69
2022/05/16 03:28:31;;;;;;;11.50;5.75;;;;;;;;;;5094776;28;20169;-69
2022/05/16 03:30:59;;;;;;;12.00;5.68;;;;;;;;;;5095268;28;20118;-69
2022/05/16 03:33:26;;;;;;;13.45;5.38;;;;;;;;;;5095043;28;20403;-69
2022/05/16 03:35:55;;;;;;;13.20;5.40;;;;;;;;;;5094933;28;20124;-69
2022/05/16 03:41:10;;;;;;;10.52;4.85;;;;;;;;;;5094758;28;20039;-69
2022/05/16 03:43:37;;;;;;;11.57;5.13;;;;;;;;;;5094929;28;20125;-69
2022/05/16 03:46:03;;;;;;;10.93;5.30;;;;;;;;;;5097768;28;20039;-69
2022/05/16 03:48:29;;;;;;;9.73;5.32;;;;;;;;;;5099273;28;20044;-69
2022/05/16 03:50:56;;;;;;;11.68;5.57;;;;;;;;;;5098975;28;20054;-69
2022/05/16 03:53:22;;;;;;;12.50;5.90;;;;;;;;;;5098747;28;20485;-69
2022/05/16 03:55:48;;;;;;;12.57;5.45;;;;;;;;;;5099164;28;20548;-69
2022/05/16 03:58:14;;;;;;;14.77;6.05;;;;;;;;;;5098616;28;20040;-69
2022/05/16 04:00:41;;;;;;;10.23;5.90;;;;;;;;;;5098833;28;20064;-69
2022/05/16 04:03:07;;;;;;;11.57;6.38;;;;;;;;;;5098705;28;20048;-69
2022/05/16 04:05:33;;;;;;;14.75;5.60;;;;;;;;;;5098688;28;20089;-69
2022/05/16 04:07:59;;;;;;;12.98;5.85;;;;;;;;;;5098980;28;20088;-69
2022/05/16 04:10:25;;;;;;;13.50;5.85;;;;;;;;;;5098383;28;20120;-69
2022/05/16 04:12:52;;;;;;;13.55;5.55;;;;;;;;;;5098548;28;20616;-69
2022/05/16 04:15:21;;;;;;;16.67;6.50;;;;;;;;;;5098579;28;20074;-69
2022/05/16 04:17:47;;;;;;;14.60;6.25;;;;;;;;;;5097994;28;20036;-69
2022/05/16 04:20:13;;;;;;;12.25;6.13;;;;;;;;;;5097458;28;20383;-69
2022/05/16 04:22:40;;;;;;;12.35;6.68;;;;;;;;;;5098523;28;20048;-69
2022/05/16 04:25:06;;;;;;;11.82;6.55;;;;;;;;;;5098029;28;20070;-69
2022/05/16 04:27:33;;;;;;;11.63;6.13;;;;;;;;;;5098007;28;20043;-69
2022/05/16 04:29:59;;;;;;;12.40;6.38;;;;;;;;;;5098298;28;20077;-69
2022/05/16 04:32:25;;;;;;;8.52;6.07;;;;;;;;;;5098261;28;20040;-69
2022/05/16 04:34:51;;;;;;;15.10;6.70;;;;;;;;;;5097763;28;20036;-69
2022/05/16 04:37:18;;;;;;;13.02;6.65;;;;;;;;;;5097940;28;20433;-69
2022/05/16 04:39:44;;;;;;;16.33;6.85;;;;;;;;;;5097826;28;20047;-69
2022/05/16 04:44:55;;;;;;;17.70;6.85;;;;;;;;;;5097407;28;20089;-69
2022/05/16 04:47:22;;;;;;;13.93;6.30;;;;;;;;;;5098039;28;20059;-69
2022/05/16 04:49:48;;;;;;;13.85;6.97;;;;;;;;;;5097432;28;20040;-69
2022/05/16 04:52:14;;;;;;;16.40;6.53;;;;;;;;;;5097806;28;20028;-69
2022/05/16 04:54:41;;;;;;;14.13;6.18;;;;;;;;;;5098179;28;20075;-69
2022/05/16 04:57:07;;;;;;;13.20;6.75;;;;;;;;;;5097683;28;20088;-69
2022/05/16 04:59:33;;;;;;;15.15;6.35;;;;;;;;;;5097777;28;20040;-70
2022/05/16 05:02:00;;;;;;;13.02;6.50;;;;;;;;;;5097688;28;20115;-69
2022/05/16 05:04:26;;;;;;;12.23;6.20;;;;;;;;;;5098042;28;20481;-69
2022/05/16 05:06:52;;;;;;;10.77;6.10;;;;;;;;;;5097227;28;20511;-69
2022/05/16 05:09:18;;;;;;;14.70;6.38;;;;;;;;;;5097590;28;20071;-68
2022/05/16 05:14:31;;;;;;;11.15;6.35;;;;;;;;;;5114982;28;20062;-68
2022/05/16 05:16:58;;;;;;;12.85;6.10;;;;;;;;;;5117431;28;20044;-69
2022/05/16 05:19:24;;;;;;;14.45;6.05;;;;;;;;;;5116943;28;20420;-70
2022/05/16 05:21:50;;;;;;;13.63;5.65;;;;;;;;;;5117628;28;20119;-71
2022/05/16 05:24:16;;;;;;;14.00;5.88;;;;;;;;;;5117191;28;20131;-70
2022/05/16 05:26:43;;;;;;;9.82;4.88;;;;;;;;;;5117172;28;20059;-69
2022/05/16 05:29:10;;;;;;;7.43;4.50;;;;;;;;;;5117124;28;20088;-69
2022/05/16 05:31:37;;;;;;;8.90;4.18;;;;;;;;;;5117322;28;20035;-69
2022/05/16 05:34:04;;;;;;;10.70;4.70;;;;;;;;;;5117084;28;20449;-68
2022/05/16 05:36:31;;;;;;;9.85;4.70;;;;;;;;;;5117030;28;20031;-70
2022/05/16 05:38:58;;;;;;;9.65;4.78;;;;;;;;;;5116918;28;20040;-69
2022/05/16 05:41:25;;;;;;;9.50;4.35;;;;;;;;;;5116480;28;20114;-68
2022/05/16 05:43:51;;;;;;;8.77;4.05;;;;;;;;;;5117290;28;20122;-68
2022/05/16 05:46:17;;;;;;;9.77;4.20;;;;;;;;;;5116548;28;20044;-68
2022/05/16 05:48:43;;;;;;;15.32;4.75;;;;;;;;;;5116669;28;20092;-69
2022/05/16 05:51:10;;;;;;;10.82;4.38;;;;;;;;;;5116929;28;20044;-69
2022/05/16 05:53:41;;;;;;;12.13;4.68;;;;;;;;;;5116789;28;20048;-69
2022/05/16 05:56:07;;;;;;;6.55;3.33;;;;;;;;;;5098164;28;20050;-68
2022/05/16 05:58:34;;;;;;;8.50;3.67;;;;;;;;;;5117121;28;20042;-69
2022/05/16 06:01:00;;;;;;;9.00;3.45;;;;;;;;;;5116328;28;20032;-69
2022/05/16 06:03:27;;;;;;;7.93;3.75;;;;;;;;;;5116345;28;20048;-69
2022/05/16 06:05:53;;;;;;;8.18;3.60;;;;;;;;;;5116107;28;20440;-69
2022/05/16 06:08:20;;;;;;;6.30;3.78;;;;;;;;;;5115926;28;20074;-69
2022/05/16 06:10:47;;;;;;;5.88;3.45;;;;;;;;;;5116006;28;20032;-69
2022/05/16 06:13:13;;;;;;;6.65;3.35;;;;;;;;;;5116419;28;20083;-69
2022/05/16 06:15:39;;;;;;;6.55;3.63;;;;;;;;;;5116297;28;20043;-69
2022/05/16 06:18:05;;;;;;;7.50;3.22;;;;;;;;;;5116447;28;20047;-69
2022/05/16 06:20:31;;;;;;;17.88;4.40;;;;;;;;;;5115906;28;20421;-69
2022/05/16 06:22:58;;;;;;;8.45;3.83;;;;;;;;;;5115863;28;20039;-69
2022/05/16 06:25:42;;;;;;;8.80;3.72;;;;;;;;;;5115316;28;20043;-69
2022/05/16 06:28:20;;;;;;;7.63;3.08;;;;;;;;;;5120387;27;20133;-69
2022/05/16 06:30:47;;;;;;;12.15;3.88;;;;;;;;;;5118301;27;20043;-69
2022/05/16 06:33:14;;;;;;;10.25;3.50;;;;;;;;;;5115270;28;20091;-69
2022/05/16 06:35:40;;;;;;;11.85;3.92;;;;;;;;;;5114955;28;20098;-69
2022/05/16 06:38:06;;;;;;;9.57;3.70;;;;;;;;;;5115791;28;20161;-69
2022/05/16 06:40:33;;;;;;;10.90;3.50;;;;;;;;;;5116136;27;20039;-69
2022/05/16 06:42:59;;;;;;;8.07;3.22;;;;;;;;;;5115464;28;20043;-69
2022/05/16 06:45:25;;;;;;;8.95;3.10;;;;;;;;;;5114889;28;20044;-69
2022/05/16 06:47:51;;;;;;;9.10;4.28;;;;;;;;;;5114872;28;20043;-70
2022/05/16 06:50:18;;;;;;;10.90;3.60;;;;;;;;;;5115666;28;20101;-69
2022/05/16 06:52:44;;;;;;;10.45;3.28;;;;;;;;;;5114722;28;20075;-69
2022/05/16 06:55:11;;;;;;;10.80;3.58;;;;;;;;;;5112847;28;20055;-69
2022/05/16 06:57:38;;;;;;;10.45;3.80;;;;;;;;;;5114079;27;20498;-69
2022/05/16 07:00:06;;;;;;;8.35;3.10;;;;;;;;;;5110686;28;20067;-69
2022/05/16 07:02:32;;;;;;;13.82;3.88;;;;;;;;;;5110828;28;20031;-69
2022/05/16 07:04:59;;;;;;;12.30;3.40;;;;;;;;;;5096357;28;20122;-69
2022/05/16 07:07:25;;;;;;;9.93;3.38;;;;;;;;;;5110626;28;20402;-69
2022/05/16 07:09:51;;;;;;;14.52;3.30;;;;;;;;;;5107138;28;20040;-69
2022/05/16 07:12:18;;;;;;;18.67;3.22;;;;;;;;;;5105336;28;20036;-70
2022/05/16 07:14:45;;;;;;;10.40;3.40;;;;;;;;;;5120407;27;20497;-69
2022/05/16 07:17:12;;;;;;;7.72;2.88;;;;;;;;;;5127137;27;20179;-69
2022/05/16 07:19:38;;;;;;;9.02;2.92;;;;;;;;;;5109066;28;20084;-69
2022/05/16 07:22:12;;;;;;;8.20;3.38;;;;;;;;;;5113955;28;20130;-69
2022/05/16 07:24:42;;;;;;;7.78;3.40;;;;;;;;;;5114581;28;20044;-69
2022/05/16 07:29:53;;;;;;;10.68;3.78;;;;;;;;;;5135052;27;20164;-71
2022/05/16 07:32:19;;;;;;;12.02;4.15;;;;;;;;;;5119943;27;20032;-72
2022/05/16 07:34:46;;;;;;;13.05;3.97;;;;;;;;;;5114764;27;20035;-72
2022/05/16 07:37:12;;;;;;;11.93;4.10;;;;;;;;;;5113778;28;20044;-72
2022/05/16 07:39:38;;;;;;;13.27;4.30;;;;;;;;;;5114756;28;20032;-72
2022/05/16 07:42:09;;;;;;;13.10;3.65;;;;;;;;;;5126710;28;20046;-71
2022/05/16 07:44:40;;;;;;;13.93;3.92;;;;;;;;;;5135128;28;20088;-72
2022/05/16 07:47:07;;;;;;;12.25;4.25;;;;;;;;;;5135287;28;20051;-72
2022/05/16 07:49:33;;;;;;;13.30;4.25;;;;;;;;;;5135459;28;20043;-71
2022/05/16 07:51:59;;;;;;;11.07;4.80;;;;;;;;;;5135069;28;20081;-72
2022/05/16 07:54:25;;;;;;;9.32;3.70;;;;;;;;;;5121817;28;20040;-71
2022/05/16 07:56:52;;;;;;;15.60;4.35;;;;;;;;;;5114919;28;20436;-71
2022/05/16 07:59:18;;;;;;;10.52;4.40;;;;;;;;;;5113815;28;20040;-72
2022/05/16 08:01:44;;;;;;;13.52;4.07;;;;;;;;;;5113572;28;20047;-72
2022/05/16 08:04:12;;;;;;;12.02;4.18;;;;;;;;;;5114753;28;20110;-72
2022/05/16 08:06:38;;;;;;;10.55;4.35;;;;;;;;;;5113107;28;20188;-71
2022/05/16 08:11:49;;;;;;;12.55;4.22;;;;;;;;;;5113568;28;20525;-71
2022/05/16 08:14:15;;;;;;;8.65;4.15;;;;;;;;;;5111959;28;20054;-71
2022/05/16 08:16:42;;;;;;;9.27;4.57;;;;;;;;;;5108905;28;20036;-70
2022/05/16 08:19:08;;;;;;;10.70;4.15;;;;;;;;;;5109837;28;20391;-71
2022/05/16 08:21:35;;;;;;;12.38;4.18;;;;;;;;;;5114209;28;20119;-71
2022/05/16 08:24:02;;;;;;;9.48;4.55;;;;;;;;;;5114542;28;20114;-71
2022/05/16 08:26:28;;;;;;;10.23;4.38;;;;;;;;;;5114210;28;20051;-71
2022/05/16 08:28:55;;;;;;;11.98;4.50;;;;;;;;;;5114226;28;20395;-71
2022/05/16 08:31:21;;;;;;;13.43;4.75;;;;;;;;;;5116043;28;20036;-71
2022/05/16 08:33:47;;;;;;;14.43;4.93;;;;;;;;;;5117896;28;20085;-71
2022/05/16 08:41:57;;;;;;;10.27;4.00;;;;;;;;;;5117991;28;20038;-71
2022/05/16 08:44:28;;;;;;;8.68;4.60;;;;;;;;;;5117655;28;20420;-71
2022/05/16 08:47:08;;;;;;;12.80;4.35;;;;;;;;;;5117672;28;20050;-71
2022/05/16 08:49:34;;;;;;;10.30;3.95;;;;;;;;;;5118240;28;20047;-71
2022/05/16 08:52:10;;;;;;;9.88;4.25;;;;;;;;;;5117557;28;20032;-71
2022/05/16 08:54:45;;;;;;;11.57;4.05;;;;;;;;;;5118244;28;20044;-71
2022/05/16 08:57:14;;;;;;;11.98;4.32;;;;;;;;;;5117801;28;20032;-71
2022/05/16 08:59:41;;;;;;;14.70;4.45;;;;;;;;;;5117845;28;20046;-71
2022/05/16 09:02:15;;;;;;;9.27;4.40;;;;;;;;;;5117685;28;20031;-71
2022/05/16 09:04:45;;;;;;;9.25;4.35;;;;;;;;;;5117675;28;20043;-71
2022/05/16 09:07:17;;;;;;;17.67;4.57;;;;;;;;;;5112355;28;20138;-71
2022/05/16 09:09:53;;;;;;;14.10;5.00;;;;;;;;;;5111274;28;20120;-71
2022/05/16 09:12:25;;;;;;;12.32;4.50;;;;;;;;;;5117047;28;20163;-71
2022/05/16 09:14:54;;;;;;;14.05;4.32;;;;;;;;;;5123730;27;20058;-70
2022/05/16 09:17:31;;;;;;;13.65;4.25;;;;;;;;;;5132282;27;20569;-71
2022/05/16 09:20:06;;;;;;;11.77;4.25;;;;;;;;;;5117151;28;20043;-71
2022/05/16 09:22:38;;;;;;;12.77;4.20;;;;;;;;;;5117658;27;20044;-71
2022/05/16 09:25:05;;;;;;;16.45;4.63;;;;;;;;;;5105326;28;20057;-70
2022/05/16 09:30:18;;;;;;;13.02;4.75;;;;;;;;;;5116701;28;20035;-71
2022/05/16 09:32:57;;;;;;;11.98;4.82;;;;;;;;;;5115614;28;20048;-71
2022/05/16 09:35:29;;;;;;;13.43;4.57;;;;;;;;;;5113112;28;20456;-71
2022/05/16 09:37:56;;;;;;;14.63;4.80;;;;;;;;;;5116560;27;20051;-71
2022/05/16 09:40:25;;;;;;;14.95;4.53;;;;;;;;;;5112147;28;20035;-71
2022/05/16 09:42:52;;;;;;;16.75;4.90;;;;;;;;;;5115532;28;20058;-72
2022/05/16 09:45:23;;;;;;;8.45;4.22;;;;;;;;;;5116176;27;20402;-70
2022/05/16 09:47:49;;;;;;;;;;;;;;;;;;5109829;28;20123;-71
2022/05/16 09:50:20;;;;;;;12.15;4.47;;;;;;;;;;5103077;28;19951;-71
2022/05/16 09:52:49;;;;;;;10.32;4.43;;;;;;;;;;5106773;28;20036;-71
2022/05/16 09:55:29;;;;;;;16.00;4.85;;;;;;;;;;5113382;27;20480;-71
2022/05/16 09:58:00;;;;;;;17.63;5.40;;;;;;;;;;5112039;28;20126;-71
2022/05/16 10:00:42;;;;;;;9.07;4.32;;;;;;;;;;5100937;28;20040;-71
2022/05/16 10:03:14;;;;;;;15.98;5.22;;;;;;;;;;5103919;28;20080;-71
2022/05/16 10:05:45;;;;;;;9.80;5.22;;;;;;;;;;5110651;28;20143;-71
2022/05/16 10:08:16;;;;;;;13.25;4.75;;;;;;;;;;5107086;27;20035;-71
2022/05/16 10:10:43;;;;;;;10.73;4.00;;;;;;;;;;5116903;28;20047;-71
2022/05/16 10:13:10;;;;;;;12.00;4.47;;;;;;;;;;5105040;28;20134;-71
2022/05/16 10:15:37;;;;;;;13.38;4.18;;;;;;;;;;5113540;28;20048;-71
2022/05/16 10:18:05;;;;;;;11.70;4.07;;;;;;;;;;5106292;27;20071;-70
2022/05/16 10:20:34;;;;;;;13.57;4.10;;;;;;;;;;5107560;28;20047;-71
2022/05/16 10:23:03;;;;;;;12.25;4.35;;;;;;;;;;5116058;27;20044;-70
2022/05/16 10:25:39;;;;;;;10.98;4.47;;;;;;;;;;5118154;27;20062;-71
2022/05/16 10:28:08;;;;;;;16.65;4.90;;;;;;;;;;5117730;27;20541;-70
2022/05/16 10:33:24;;;;;;;13.95;4.53;;;;;;;;;;5130319;27;20066;-70
2022/05/16 10:33:26;;;;;;;8.68;4.18;;;;;;;;;;5112812;27;20040;-70
2022/05/16 10:36:05;;;;;;;11.48;4.80;;;;;;;;;;5108143;28;20058;-70
2022/05/16 10:38:48;;;;;;;17.08;5.18;;;;;;;;;;5095997;28;20561;-70
2022/05/16 10:41:18;;;;;;;16.25;4.95;;;;;;;;;;5115278;28;20035;-70
2022/05/16 10:43:54;;;;;;;10.55;4.43;;;;;;;;;;5110747;27;20153;-70
2022/05/16 10:46:24;;;;;;;22.48;5.80;;;;;;;;;;5097077;28;20047;-70
2022/05/16 10:48:56;;;;;;;15.10;5.03;;;;;;;;;;5100341;27;20035;-70
2022/05/16 10:51:41;;;;;;;15.75;4.88;;;;;;;;;;5104365;28;20089;-70
2022/05/16 10:54:09;;;;;;;14.98;4.80;;;;;;;;;;5115350;28;20043;-70
2022/05/16 10:56:43;;;;;;;15.75;5.28;;;;;;;;;;5119892;27;20036;-69
2022/05/16 10:59:10;;;;;;;13.27;4.55;;;;;;;;;;5113986;28;20040;-69
2022/05/16 11:01:42;;;;;;;20.00;5.32;;;;;;;;;;5109370;28;20153;-71
2022/05/16 11:04:17;;;;;;;13.35;4.53;;;;;;;;;;5110157;28;20036;-71
2022/05/16 11:06:58;;;;;;;11.48;5.13;;;;;;;;;;5108027;28;20044;-71
2022/05/16 11:09:30;;;;;;;11.70;5.32;;;;;;;;;;5106560;27;20044;-71
2022/05/16 11:12:04;;;;;;;10.75;4.88;;;;;;;;;;5113696;28;20032;-71
2022/05/16 11:14:38;;;;;;;14.30;5.65;;;;;;;;;;5109820;27;20051;-71
2022/05/16 11:17:23;;;;;;;10.32;5.18;;;;;;;;;;5114043;28;20084;-71
2022/05/16 11:20:08;;;;;;;14.15;5.25;;;;;;;;;;5114010;28;20559;-71
2022/05/16 11:22:41;;;;;;;10.07;5.60;;;;;;;;;;5114649;28;20115;-71
2022/05/16 11:25:23;;;;;;;18.10;4.97;;;;;;;;;;5108598;28;20040;-71
2022/05/16 11:28:00;;;;;;;10.15;4.90;;;;;;;;;;5109357;28;20372;-70
2022/05/16 11:30:45;;;;;;;12.25;4.63;;;;;;;;;;5110914;28;20031;-70
2022/05/16 11:33:29;;;;;;;17.50;5.93;;;;;;;;;;5114244;28;20106;-70
2022/05/16 11:36:07;;;;;;;14.73;5.45;;;;;;;;;;5114504;28;20134;-70
2022/05/16 11:38:49;;;;;;;15.10;4.88;;;;;;;;;;5113928;28;20054;-70
2022/05/16 11:41:26;;;;;;;13.25;4.68;;;;;;;;;;5114190;28;20043;-69
2022/05/16 11:44:01;;;;;;;9.05;4.30;;;;;;;;;;5097019;28;20457;-69
2022/05/16 11:46:30;;;;;;;9.35;4.07;;;;;;;;;;5114220;28;20047;-70
2022/05/16 11:48:56;;;;;;;13.88;5.40;;;;;;;;;;5113696;28;20070;-69
2022/05/16 11:51:26;;;;;;;13.98;5.32;;;;;;;;;;5113390;28;20426;-70
2022/05/16 11:53:54;;;;;;;15.05;5.72;;;;;;;;;;5113678;28;20490;-70
2022/05/16 12:02:17;;;;;;;14.88;5.20;;;;;;;;;;5114211;28;20039;-70
2022/05/16 12:04:45;;;;;;;10.80;4.75;;;;;;;;;;5113153;28;20051;-69
2022/05/16 12:07:43;;;;;;;14.60;4.97;;;;;;;;;;5117436;27;20134;-68
2022/05/16 12:10:15;;;;;;;11.05;5.50;;;;;;;;;;5068698;28;20050;-69
2022/05/16 12:12:44;;;;;;;13.85;5.95;;;;;;;;;;5113263;28;20051;-70
2022/05/16 12:15:13;;;;;;;11.80;4.72;;;;;;;;;;5118228;28;20133;-69
2022/05/16 12:17:40;;;;;;;;;;;;;;;;;;5114304;27;20104;-70
2022/05/16 12:20:10;;;;;;;11.05;4.72;;;;;;;;;;5108293;28;20002;-70
2022/05/16 12:22:36;;;;;;;14.80;4.70;;;;;;;;;;5113373;28;20044;-70
2022/05/16 12:25:10;;;;;;;13.85;4.60;;;;;;;;;;5105953;27;20039;-70
2022/05/16 12:27:41;;;;;;;10.90;4.72;;;;;;;;;;5112936;28;20032;-70
2022/05/16 12:30:12;;;;;;;12.88;5.38;;;;;;;;;;5102626;27;20060;-70
2022/05/16 12:32:38;;;;;;;16.73;5.68;;;;;;;;;;5102892;27;20039;-71
2022/05/16 12:35:07;;;;;;;12.93;4.93;;;;;;;;;;5118226;27;20130;-70
2022/05/16 12:37:34;;;;;;;11.82;4.78;;;;;;;;;;5117460;28;20048;-71
2022/05/16 12:40:07;;;;;;;11.88;4.80;;;;;;;;;;5113330;28;20043;-71
2022/05/16 12:42:45;;;;;;;10.68;4.70;;;;;;;;;;5117520;27;20141;-71
2022/05/16 12:45:25;;;;;;;14.93;4.72;;;;;;;;;;5101318;28;20040;-71
2022/05/16 12:48:02;;;;;;;11.88;4.95;;;;;;;;;;5110730;27;20063;-71
2022/05/16 12:50:47;;;;;;;15.18;4.93;;;;;;;;;;5101396;28;20036;-71
2022/05/16 12:53:31;;;;;;;14.95;5.32;;;;;;;;;;5116027;27;20043;-71
2022/05/16 12:56:15;;;;;;;8.45;4.85;;;;;;;;;;5112714;28;20039;-71
2022/05/16 12:59:00;;;;;;;11.93;5.32;;;;;;;;;;5117023;28;20038;-71
2022/05/16 13:01:35;;;;;;;16.45;5.97;;;;;;;;;;5116704;28;20032;-71
2022/05/16 13:04:09;;;;;;;10.38;4.65;;;;;;;;;;5123740;27;20118;-71
2022/05/16 13:06:35;;;;;;;11.27;5.45;;;;;;;;;;5117992;28;20109;-71
2022/05/16 13:09:21;;;;;;;11.68;5.07;;;;;;;;;;5131357;27;20493;-71
2022/05/16 13:11:57;;;;;;;9.57;4.78;;;;;;;;;;5094359;28;20114;-71
2022/05/16 13:14:34;;;;;;;12.38;5.30;;;;;;;;;;5110161;28;20093;-71
2022/05/16 13:17:10;;;;;;;10.38;4.50;;;;;;;;;;5104828;28;20051;-71
2022/05/16 13:19:38;;;;;;;18.13;5.40;;;;;;;;;;5115616;28;20044;-71
2022/05/16 13:22:12;;;;;;;17.65;5.35;;;;;;;;;;5115198;28;20031;-71
2022/05/16 13:24:39;;;;;;;11.13;5.03;;;;;;;;;;5117404;28;20059;-71
2022/05/16 13:29:53;;;;;;;14.02;5.72;;;;;;;;;;5117016;28;20043;-71
2022/05/16 13:32:20;;;;;;;14.65;4.45;;;;;;;;;;5116475;28;20403;-71
2022/05/16 13:34:47;;;;;;;13.77;5.43;;;;;;;;;;5116426;28;20085;-71
2022/05/16 13:37:17;;;;;;;17.45;5.30;;;;;;;;;;5116840;28;20051;-71
2022/05/16 13:39:43;;;;;;;;;;;;;;;;;;5116364;28;20044;-71
2022/05/16 13:42:10;;;;;;;14.68;4.97;;;;;;;;;;5117201;27;19915;-71
2022/05/16 13:44:38;;;;;;;15.15;5.75;;;;;;;;;;5110042;28;20040;-71
2022/05/16 13:47:05;;;;;;;12.93;4.80;;;;;;;;;;5116120;28;20047;-71
2022/05/16 13:49:32;;;;;;;15.23;4.90;;;;;;;;;;5117448;28;20080;-70
2022/05/16 13:52:00;;;;;;;19.15;6.00;;;;;;;;;;5116685;28;20035;-71
2022/05/16 13:54:29;;;;;;;10.13;4.95;;;;;;;;;;5117690;28;20043;-71
2022/05/16 13:56:57;;;;;;;13.02;5.20;;;;;;;;;;5117000;28;20040;-71
2022/05/16 13:59:24;;;;;;;12.18;4.88;;;;;;;;;;5116281;28;20039;-71
2022/05/16 14:01:52;;;;;;;14.52;5.65;;;;;;;;;;5100553;27;20067;-70
2022/05/16 14:04:19;;;;;;;10.73;5.00;;;;;;;;;;5116028;28;20032;-71
2022/05/16 14:06:50;;;;;;;14.55;5.13;;;;;;;;;;5116820;28;20103;-70
2022/05/16 14:09:24;;;;;;;18.05;4.70;;;;;;;;;;5116358;28;20096;-70
2022/05/16 14:11:52;;;;;;;15.55;4.90;;;;;;;;;;5109092;27;20035;-70
2022/05/16 14:14:20;;;;;;;12.27;5.10;;;;;;;;;;5115428;28;20059;-70
2022/05/16 14:16:51;;;;;;;17.08;4.88;;;;;;;;;;5116122;28;20097;-70
2022/05/16 14:19:32;;;;;;;14.45;5.40;;;;;;;;;;5103638;27;20202;-71
2022/05/16 14:22:02;;;;;;;10.88;4.28;;;;;;;;;;5112312;27;20184;-70
2022/05/16 14:24:35;;;;;;;14.55;5.13;;;;;;;;;;5106076;27;20145;-71
2022/05/16 14:27:01;;;;;;;14.15;4.50;;;;;;;;;;5111194;27;20060;-70
2022/05/16 14:29:28;;;;;;;11.23;4.90;;;;;;;;;;5107399;28;20044;-70
2022/05/16 14:32:00;;;;;;;10.35;4.93;;;;;;;;;;5102434;27;20036;-70
2022/05/16 14:34:31;;;;;;;9.70;4.78;;;;;;;;;;5114969;28;20074;-69
2022/05/16 14:37:09;;;;;;;10.10;4.35;;;;;;;;;;5111163;28;20112;-70
2022/05/16 14:39:50;;;;;;;10.38;4.30;;;;;;;;;;5112620;28;20080;-70
2022/05/16 14:42:20;;;;;;;12.68;5.32;;;;;;;;;;5104537;28;20036;-70
2022/05/16 14:45:04;;;;;;;13.88;4.80;;;;;;;;;;5114319;28;20085;-70
2022/05/16 14:47:39;;;;;;;14.63;5.07;;;;;;;;;;5113752;28;20054;-70
2022/05/16 14:50:06;;;;;;;10.13;4.72;;;;;;;;;;5115424;28;20088;-70
2022/05/16 14:52:33;;;;;;;9.80;4.85;;;;;;;;;;5114786;28;20071;-70
2022/05/16 14:55:02;;;;;;;11.60;4.88;;;;;;;;;;5114781;28;20035;-70
2022/05/16 14:57:29;;;;;;;8.95;4.75;;;;;;;;;;5114514;28;20039;-70
2022/05/16 14:59:55;;;;;;;11.75;5.13;;;;;;;;;;5114603;27;20516;-70
2022/05/16 15:05:06;;;;;;;9.82;4.60;;;;;;;;;;5114114;28;20066;-70
2022/05/16 15:07:35;;;;;;;10.10;5.30;;;;;;;;;;5135058;27;20122;-70
2022/05/16 15:10:01;;;;;;;8.32;4.70;;;;;;;;;;5135558;27;20046;-70
2022/05/16 15:12:27;;;;;;;10.77;4.65;;;;;;;;;;5134911;27;20125;-70
2022/05/16 15:14:53;;;;;;;14.00;5.05;;;;;;;;;;5116952;27;20049;-70
2022/05/16 15:17:21;;;;;;;10.98;5.28;;;;;;;;;;5107524;28;20062;-70
2022/05/16 15:19:47;;;;;;;11.60;4.13;;;;;;;;;;5102015;28;20039;-70
2022/05/16 15:22:15;;;;;;;16.00;5.13;;;;;;;;;;5093885;28;20092;-70
2022/05/16 15:24:55;;;;;;;12.57;4.78;;;;;;;;;;5113200;28;20040;-70